Portada
METAR-TAF:

METAR-TAF

Aeroports :

Avinyó, França

latitud: 43-54-26N, longitud: 004-54-07E, altitud: 38 m

Observació

L'informe es va fer fa 12 minuts, a les 16:00 UTC
Vent 19 kt del Nord
Temperatura 8°C
Humitat 53%
Pressió 1021 hPa
Visibilitat 10 km o més
sense núvols per sota de 1500 mi sense presència de cumulonimbus.

METAR: LFMV 101600Z AUTO 35019KT CAVOK 08/M01 Q1021 NOSIG

Hora: 17:12 (16:12 UTC)

Pronòstic

L'informe es va fer fa 2 hores i 12 minuts, a les 14:00 UTC
Pronòstic vàlid del 10 a les 15 UTC al 11 a les 15 UTC
Vent 22 kt del Nord
Visibilitat 10 km o més
sense núvols per sota de 1500 mi sense presència de cumulonimbus.
Evolucionant progressivament
l' 10 a les 18 UTC al 10 a les 20 UTC
Vent 5 kt del Nord
Temporalment
l' 11 a les 10 UTC al 11 a les 15 UTC
Cel ennuvolat a una alçada de 2000 ft
pluja

TAF: LFMV 101400Z 1015/1115 35022KT CAVOK BECMG 1018/1020 36005KT TEMPO 1110/1115 RA BKN020

Observacions i pronòstics meteorològics de més de 4000 aeroports (METAR i TAF).

Les estacions disponibles són els punts grocs i vermells al mapa.

Posi el ratolí al punt desitjat per veure el nom de l'estació.

Feu clic per veure les observacions i els pronòstics meteorològics.

Per canviar el mapa: feu clic els botons verds amb una creu de color negre per apropar; al botó verd amb un guió per allunyar la imatge; o en les fletxes verdes per a mapes adjacents.


METAR-TAF: